sensor_id;sensor_type;location;lat;lon;timestamp;P1;durP1;ratioP1;P2;durP2;ratioP2
45944;SDS011;31655;48.972;10.686;2023-08-08T00:01:24;6.90;;;4.72;;
45944;SDS011;31655;48.972;10.686;2023-08-08T00:03:50;7.35;;;4.72;;
45944;SDS011;31655;48.972;10.686;2023-08-08T00:06:16;9.05;;;5.97;;
45944;SDS011;31655;48.972;10.686;2023-08-08T00:08:42;8.57;;;4.68;;
45944;SDS011;31655;48.972;10.686;2023-08-08T00:11:08;7.65;;;4.63;;
45944;SDS011;31655;48.972;10.686;2023-08-08T00:13:34;6.20;;;4.10;;
45944;SDS011;31655;48.972;10.686;2023-08-08T00:16:00;6.65;;;4.20;;
45944;SDS011;31655;48.972;10.686;2023-08-08T00:18:26;9.23;;;4.82;;
45944;SDS011;31655;48.972;10.686;2023-08-08T00:20:53;8.43;;;5.22;;
45944;SDS011;31655;48.972;10.686;2023-08-08T00:23:19;7.22;;;4.90;;
45944;SDS011;31655;48.972;10.686;2023-08-08T00:25:45;5.68;;;4.22;;
45944;SDS011;31655;48.972;10.686;2023-08-08T00:28:15;6.50;;;4.05;;
45944;SDS011;31655;48.972;10.686;2023-08-08T00:30:41;9.75;;;4.68;;
45944;SDS011;31655;48.972;10.686;2023-08-08T00:33:07;7.80;;;5.30;;
45944;SDS011;31655;48.972;10.686;2023-08-08T00:35:33;9.27;;;5.35;;
45944;SDS011;31655;48.972;10.686;2023-08-08T00:37:59;8.48;;;4.90;;
45944;SDS011;31655;48.972;10.686;2023-08-08T00:40:25;6.00;;;4.05;;
45944;SDS011;31655;48.972;10.686;2023-08-08T00:42:52;4.85;;;3.80;;
45944;SDS011;31655;48.972;10.686;2023-08-08T00:45:18;9.75;;;4.65;;
45944;SDS011;31655;48.972;10.686;2023-08-08T00:47:43;7.38;;;4.97;;
45944;SDS011;31655;48.972;10.686;2023-08-08T00:50:10;5.70;;;4.30;;
45944;SDS011;31655;48.972;10.686;2023-08-08T00:52:37;21.23;;;4.28;;
45944;SDS011;31655;48.972;10.686;2023-08-08T00:55:04;6.22;;;3.90;;
45944;SDS011;31655;48.972;10.686;2023-08-08T00:57:30;5.78;;;4.10;;
45944;SDS011;31655;48.972;10.686;2023-08-08T00:59:56;9.27;;;4.20;;
45944;SDS011;31655;48.972;10.686;2023-08-08T01:02:22;6.75;;;4.43;;
45944;SDS011;31655;48.972;10.686;2023-08-08T01:04:48;5.93;;;4.10;;
45944;SDS011;31655;48.972;10.686;2023-08-08T01:07:24;6.18;;;4.05;;
45944;SDS011;31655;48.972;10.686;2023-08-08T01:09:57;10.80;;;5.90;;
45944;SDS011;31655;48.972;10.686;2023-08-08T01:12:35;10.18;;;4.22;;
45944;SDS011;31655;48.972;10.686;2023-08-08T01:15:08;6.43;;;4.28;;
45944;SDS011;31655;48.972;10.686;2023-08-08T01:17:35;5.28;;;3.50;;
45944;SDS011;31655;48.972;10.686;2023-08-08T01:20:04;5.90;;;3.90;;
45944;SDS011;31655;48.972;10.686;2023-08-08T01:25:36;5.18;;;4.15;;
45944;SDS011;31655;48.972;10.686;2023-08-08T01:28:03;7.50;;;4.20;;
45944;SDS011;31655;48.972;10.686;2023-08-08T01:30:28;7.45;;;4.53;;
45944;SDS011;31655;48.972;10.686;2023-08-08T01:32:54;5.43;;;4.07;;
45944;SDS011;31655;48.972;10.686;2023-08-08T01:35:20;5.03;;;4.20;;
45944;SDS011;31655;48.972;10.686;2023-08-08T01:37:51;5.38;;;3.58;;
45944;SDS011;31655;48.972;10.686;2023-08-08T01:40:21;5.07;;;3.92;;
45944;SDS011;31655;48.972;10.686;2023-08-08T01:42:48;6.93;;;4.15;;
45944;SDS011;31655;48.972;10.686;2023-08-08T01:45:15;6.65;;;4.70;;
45944;SDS011;31655;48.972;10.686;2023-08-08T01:47:41;5.97;;;4.65;;
45944;SDS011;31655;48.972;10.686;2023-08-08T01:50:07;4.80;;;3.80;;
45944;SDS011;31655;48.972;10.686;2023-08-08T01:52:34;6.60;;;4.43;;
45944;SDS011;31655;48.972;10.686;2023-08-08T01:55:00;8.88;;;4.00;;
45944;SDS011;31655;48.972;10.686;2023-08-08T01:57:26;6.03;;;4.35;;
45944;SDS011;31655;48.972;10.686;2023-08-08T01:59:51;3.72;;;3.13;;
45944;SDS011;31655;48.972;10.686;2023-08-08T02:02:17;4.28;;;3.60;;
45944;SDS011;31655;48.972;10.686;2023-08-08T02:04:43;5.20;;;3.90;;
45944;SDS011;31655;48.972;10.686;2023-08-08T02:07:09;4.97;;;3.88;;
45944;SDS011;31655;48.972;10.686;2023-08-08T02:09:35;6.97;;;3.83;;
45944;SDS011;31655;48.972;10.686;2023-08-08T02:12:01;6.40;;;4.35;;
45944;SDS011;31655;48.972;10.686;2023-08-08T02:14:27;7.45;;;4.15;;
45944;SDS011;31655;48.972;10.686;2023-08-08T02:16:53;9.32;;;5.60;;
45944;SDS011;31655;48.972;10.686;2023-08-08T02:19:19;7.43;;;4.18;;
45944;SDS011;31655;48.972;10.686;2023-08-08T02:21:45;7.45;;;4.53;;
45944;SDS011;31655;48.972;10.686;2023-08-08T02:24:11;4.45;;;3.63;;
45944;SDS011;31655;48.972;10.686;2023-08-08T02:26:37;7.70;;;5.25;;
45944;SDS011;31655;48.972;10.686;2023-08-08T02:29:03;7.38;;;4.15;;
45944;SDS011;31655;48.972;10.686;2023-08-08T02:31:29;4.35;;;3.55;;
45944;SDS011;31655;48.972;10.686;2023-08-08T02:33:55;5.07;;;3.83;;
45944;SDS011;31655;48.972;10.686;2023-08-08T02:36:21;5.60;;;3.67;;
45944;SDS011;31655;48.972;10.686;2023-08-08T02:38:47;5.35;;;4.13;;
45944;SDS011;31655;48.972;10.686;2023-08-08T02:41:14;6.18;;;4.63;;
45944;SDS011;31655;48.972;10.686;2023-08-08T02:43:40;6.80;;;4.45;;
45944;SDS011;31655;48.972;10.686;2023-08-08T02:46:06;6.20;;;3.97;;
45944;SDS011;31655;48.972;10.686;2023-08-08T02:48:32;5.90;;;4.22;;
45944;SDS011;31655;48.972;10.686;2023-08-08T02:50:58;5.93;;;4.00;;
45944;SDS011;31655;48.972;10.686;2023-08-08T02:53:24;5.00;;;4.10;;
45944;SDS011;31655;48.972;10.686;2023-08-08T02:55:50;10.75;;;4.85;;
45944;SDS011;31655;48.972;10.686;2023-08-08T02:58:16;6.13;;;4.28;;
45944;SDS011;31655;48.972;10.686;2023-08-08T03:00:42;8.55;;;4.65;;
45944;SDS011;31655;48.972;10.686;2023-08-08T03:03:08;10.30;;;4.28;;
45944;SDS011;31655;48.972;10.686;2023-08-08T03:05:34;5.95;;;3.55;;
45944;SDS011;31655;48.972;10.686;2023-08-08T03:07:59;5.07;;;3.17;;
45944;SDS011;31655;48.972;10.686;2023-08-08T03:10:25;6.50;;;4.18;;
45944;SDS011;31655;48.972;10.686;2023-08-08T03:12:51;7.35;;;3.80;;
45944;SDS011;31655;48.972;10.686;2023-08-08T03:15:17;7.07;;;5.07;;
45944;SDS011;31655;48.972;10.686;2023-08-08T03:17:43;6.40;;;4.00;;
45944;SDS011;31655;48.972;10.686;2023-08-08T03:20:09;6.57;;;4.65;;
45944;SDS011;31655;48.972;10.686;2023-08-08T03:22:35;7.63;;;4.38;;
45944;SDS011;31655;48.972;10.686;2023-08-08T03:25:01;6.35;;;4.75;;
45944;SDS011;31655;48.972;10.686;2023-08-08T03:27:29;6.35;;;4.70;;
45944;SDS011;31655;48.972;10.686;2023-08-08T03:29:55;11.40;;;4.78;;
45944;SDS011;31655;48.972;10.686;2023-08-08T03:32:21;7.32;;;4.65;;
45944;SDS011;31655;48.972;10.686;2023-08-08T03:34:47;4.97;;;3.80;;
45944;SDS011;31655;48.972;10.686;2023-08-08T03:37:13;8.10;;;5.07;;
45944;SDS011;31655;48.972;10.686;2023-08-08T03:39:39;9.35;;;4.22;;
45944;SDS011;31655;48.972;10.686;2023-08-08T03:42:05;4.78;;;3.88;;
45944;SDS011;31655;48.972;10.686;2023-08-08T03:44:31;10.68;;;4.93;;
45944;SDS011;31655;48.972;10.686;2023-08-08T03:46:57;9.75;;;4.63;;
45944;SDS011;31655;48.972;10.686;2023-08-08T03:49:23;7.40;;;4.47;;
45944;SDS011;31655;48.972;10.686;2023-08-08T03:51:49;6.50;;;4.55;;
45944;SDS011;31655;48.972;10.686;2023-08-08T03:54:15;7.93;;;3.70;;
45944;SDS011;31655;48.972;10.686;2023-08-08T03:56:41;9.75;;;4.05;;
45944;SDS011;31655;48.972;10.686;2023-08-08T03:59:07;5.97;;;4.93;;
45944;SDS011;31655;48.972;10.686;2023-08-08T04:01:33;4.95;;;4.15;;
45944;SDS011;31655;48.972;10.686;2023-08-08T04:03:59;7.68;;;4.47;;
45944;SDS011;31655;48.972;10.686;2023-08-08T04:06:25;6.10;;;4.32;;
45944;SDS011;31655;48.972;10.686;2023-08-08T04:08:51;5.13;;;4.10;;
45944;SDS011;31655;48.972;10.686;2023-08-08T04:11:16;8.27;;;4.35;;
45944;SDS011;31655;48.972;10.686;2023-08-08T04:13:42;6.93;;;4.22;;
45944;SDS011;31655;48.972;10.686;2023-08-08T04:16:08;5.60;;;4.05;;
45944;SDS011;31655;48.972;10.686;2023-08-08T04:18:34;5.93;;;4.68;;
45944;SDS011;31655;48.972;10.686;2023-08-08T04:21:00;7.97;;;4.85;;
45944;SDS011;31655;48.972;10.686;2023-08-08T04:23:26;7.47;;;4.55;;
45944;SDS011;31655;48.972;10.686;2023-08-08T04:25:52;6.07;;;4.40;;
45944;SDS011;31655;48.972;10.686;2023-08-08T04:28:18;9.73;;;4.10;;
45944;SDS011;31655;48.972;10.686;2023-08-08T04:30:44;6.40;;;4.35;;
45944;SDS011;31655;48.972;10.686;2023-08-08T04:33:10;6.68;;;4.65;;
45944;SDS011;31655;48.972;10.686;2023-08-08T04:35:36;11.02;;;5.13;;
45944;SDS011;31655;48.972;10.686;2023-08-08T04:38:02;4.63;;;3.72;;
45944;SDS011;31655;48.972;10.686;2023-08-08T04:40:28;6.72;;;4.50;;
45944;SDS011;31655;48.972;10.686;2023-08-08T04:42:54;6.35;;;4.43;;
45944;SDS011;31655;48.972;10.686;2023-08-08T04:45:20;6.50;;;4.70;;
45944;SDS011;31655;48.972;10.686;2023-08-08T04:47:46;6.10;;;4.43;;
45944;SDS011;31655;48.972;10.686;2023-08-08T04:50:12;9.88;;;5.07;;
45944;SDS011;31655;48.972;10.686;2023-08-08T04:52:38;13.73;;;4.32;;
45944;SDS011;31655;48.972;10.686;2023-08-08T04:55:04;6.65;;;4.18;;
45944;SDS011;31655;48.972;10.686;2023-08-08T04:57:31;7.25;;;4.38;;
45944;SDS011;31655;48.972;10.686;2023-08-08T04:59:57;6.03;;;3.80;;
45944;SDS011;31655;48.972;10.686;2023-08-08T05:02:23;7.25;;;4.18;;
45944;SDS011;31655;48.972;10.686;2023-08-08T05:04:49;5.68;;;4.82;;
45944;SDS011;31655;48.972;10.686;2023-08-08T05:07:15;5.88;;;3.67;;
45944;SDS011;31655;48.972;10.686;2023-08-08T05:09:41;8.73;;;3.92;;
45944;SDS011;31655;48.972;10.686;2023-08-08T05:12:07;3.70;;;2.75;;
45944;SDS011;31655;48.972;10.686;2023-08-08T05:14:33;4.30;;;1.75;;
45944;SDS011;31655;48.972;10.686;2023-08-08T05:17:01;7.55;;;2.22;;
45944;SDS011;31655;48.972;10.686;2023-08-08T05:19:27;2.33;;;2.13;;
45944;SDS011;31655;48.972;10.686;2023-08-08T05:21:53;1.83;;;1.65;;
45944;SDS011;31655;48.972;10.686;2023-08-08T05:24:19;4.00;;;1.85;;
45944;SDS011;31655;48.972;10.686;2023-08-08T05:26:48;2.63;;;1.25;;
45944;SDS011;31655;48.972;10.686;2023-08-08T05:29:13;3.78;;;2.83;;
45944;SDS011;31655;48.972;10.686;2023-08-08T05:31:39;3.90;;;2.00;;
45944;SDS011;31655;48.972;10.686;2023-08-08T05:34:05;2.53;;;1.80;;
45944;SDS011;31655;48.972;10.686;2023-08-08T05:36:31;1.67;;;1.45;;
45944;SDS011;31655;48.972;10.686;2023-08-08T05:38:57;3.10;;;1.50;;
45944;SDS011;31655;48.972;10.686;2023-08-08T05:41:23;8.75;;;1.50;;
45944;SDS011;31655;48.972;10.686;2023-08-08T05:43:50;2.83;;;1.20;;
45944;SDS011;31655;48.972;10.686;2023-08-08T05:46:15;5.18;;;1.90;;
45944;SDS011;31655;48.972;10.686;2023-08-08T05:48:41;4.07;;;1.60;;
45944;SDS011;31655;48.972;10.686;2023-08-08T05:51:07;2.45;;;1.90;;
45944;SDS011;31655;48.972;10.686;2023-08-08T05:53:33;2.22;;;1.65;;
45944;SDS011;31655;48.972;10.686;2023-08-08T05:55:59;3.08;;;2.40;;
45944;SDS011;31655;48.972;10.686;2023-08-08T05:58:25;2.67;;;2.20;;
45944;SDS011;31655;48.972;10.686;2023-08-08T06:00:51;2.30;;;2.08;;
45944;SDS011;31655;48.972;10.686;2023-08-08T06:03:17;3.65;;;2.85;;
45944;SDS011;31655;48.972;10.686;2023-08-08T06:05:43;3.22;;;2.55;;
45944;SDS011;31655;48.972;10.686;2023-08-08T06:08:09;6.25;;;3.08;;
45944;SDS011;31655;48.972;10.686;2023-08-08T06:10:37;3.45;;;2.58;;
45944;SDS011;31655;48.972;10.686;2023-08-08T06:13:03;4.43;;;3.45;;
45944;SDS011;31655;48.972;10.686;2023-08-08T06:15:29;8.10;;;3.33;;
45944;SDS011;31655;48.972;10.686;2023-08-08T06:17:56;4.70;;;3.83;;
45944;SDS011;31655;48.972;10.686;2023-08-08T06:20:22;5.57;;;4.30;;
45944;SDS011;31655;48.972;10.686;2023-08-08T06:22:48;6.07;;;3.88;;
45944;SDS011;31655;48.972;10.686;2023-08-08T06:25:14;10.60;;;4.20;;
45944;SDS011;31655;48.972;10.686;2023-08-08T06:27:40;4.47;;;3.15;;
45944;SDS011;31655;48.972;10.686;2023-08-08T06:30:06;5.15;;;3.10;;
45944;SDS011;31655;48.972;10.686;2023-08-08T06:32:33;4.65;;;3.05;;
45944;SDS011;31655;48.972;10.686;2023-08-08T06:34:59;3.92;;;3.13;;
45944;SDS011;31655;48.972;10.686;2023-08-08T06:37:25;6.55;;;3.33;;
45944;SDS011;31655;48.972;10.686;2023-08-08T06:39:51;4.78;;;2.97;;
45944;SDS011;31655;48.972;10.686;2023-08-08T06:42:17;3.35;;;2.10;;
45944;SDS011;31655;48.972;10.686;2023-08-08T06:44:43;2.95;;;2.60;;
45944;SDS011;31655;48.972;10.686;2023-08-08T06:47:10;4.57;;;2.28;;
45944;SDS011;31655;48.972;10.686;2023-08-08T06:49:36;2.90;;;1.92;;
45944;SDS011;31655;48.972;10.686;2023-08-08T06:52:02;2.72;;;1.95;;
45944;SDS011;31655;48.972;10.686;2023-08-08T06:54:28;5.80;;;1.77;;
45944;SDS011;31655;48.972;10.686;2023-08-08T06:56:54;2.25;;;1.13;;
45944;SDS011;31655;48.972;10.686;2023-08-08T06:59:22;2.20;;;1.60;;
45944;SDS011;31655;48.972;10.686;2023-08-08T07:01:48;4.68;;;1.70;;
45944;SDS011;31655;48.972;10.686;2023-08-08T07:04:14;5.45;;;2.13;;
45944;SDS011;31655;48.972;10.686;2023-08-08T07:06:42;3.40;;;1.48;;
45944;SDS011;31655;48.972;10.686;2023-08-08T07:09:08;2.80;;;2.08;;
45944;SDS011;31655;48.972;10.686;2023-08-08T07:11:40;2.53;;;1.90;;
45944;SDS011;31655;48.972;10.686;2023-08-08T07:14:05;6.68;;;2.42;;
45944;SDS011;31655;48.972;10.686;2023-08-08T07:16:31;4.25;;;2.10;;
45944;SDS011;31655;48.972;10.686;2023-08-08T07:18:57;2.58;;;2.03;;
45944;SDS011;31655;48.972;10.686;2023-08-08T07:21:23;2.45;;;1.88;;
45944;SDS011;31655;48.972;10.686;2023-08-08T07:23:49;2.00;;;1.60;;
45944;SDS011;31655;48.972;10.686;2023-08-08T07:26:15;1.90;;;1.35;;
45944;SDS011;31655;48.972;10.686;2023-08-08T07:28:41;3.28;;;1.73;;
45944;SDS011;31655;48.972;10.686;2023-08-08T07:31:07;3.15;;;1.80;;
45944;SDS011;31655;48.972;10.686;2023-08-08T07:33:33;1.50;;;1.40;;
45944;SDS011;31655;48.972;10.686;2023-08-08T07:35:59;3.55;;;1.60;;
45944;SDS011;31655;48.972;10.686;2023-08-08T07:38:25;3.08;;;1.20;;
45944;SDS011;31655;48.972;10.686;2023-08-08T07:40:51;4.45;;;1.85;;
45944;SDS011;31655;48.972;10.686;2023-08-08T07:43:17;3.08;;;2.13;;
45944;SDS011;31655;48.972;10.686;2023-08-08T07:45:43;2.80;;;1.88;;
45944;SDS011;31655;48.972;10.686;2023-08-08T07:48:09;4.75;;;2.08;;
45944;SDS011;31655;48.972;10.686;2023-08-08T07:50:35;2.00;;;1.70;;
45944;SDS011;31655;48.972;10.686;2023-08-08T07:53:00;5.47;;;2.03;;
45944;SDS011;31655;48.972;10.686;2023-08-08T07:55:26;1.88;;;1.67;;
45944;SDS011;31655;48.972;10.686;2023-08-08T07:57:52;3.65;;;2.25;;
45944;SDS011;31655;48.972;10.686;2023-08-08T08:00:19;2.60;;;1.67;;
45944;SDS011;31655;48.972;10.686;2023-08-08T08:02:45;3.22;;;2.47;;
45944;SDS011;31655;48.972;10.686;2023-08-08T08:05:11;4.30;;;1.92;;
45944;SDS011;31655;48.972;10.686;2023-08-08T08:07:37;3.03;;;1.58;;
45944;SDS011;31655;48.972;10.686;2023-08-08T08:10:04;3.20;;;1.60;;
45944;SDS011;31655;48.972;10.686;2023-08-08T08:12:32;2.80;;;1.65;;
45944;SDS011;31655;48.972;10.686;2023-08-08T08:14:58;2.92;;;1.55;;
45944;SDS011;31655;48.972;10.686;2023-08-08T08:17:24;3.05;;;1.77;;
45944;SDS011;31655;48.972;10.686;2023-08-08T08:19:50;1.83;;;1.63;;
45944;SDS011;31655;48.972;10.686;2023-08-08T08:22:16;3.08;;;1.98;;
45944;SDS011;31655;48.972;10.686;2023-08-08T08:24:42;2.17;;;1.98;;
45944;SDS011;31655;48.972;10.686;2023-08-08T08:27:08;3.60;;;2.00;;
45944;SDS011;31655;48.972;10.686;2023-08-08T08:29:34;2.45;;;1.85;;
45944;SDS011;31655;48.972;10.686;2023-08-08T08:32:00;2.88;;;2.15;;
45944;SDS011;31655;48.972;10.686;2023-08-08T08:34:25;3.38;;;2.33;;
45944;SDS011;31655;48.972;10.686;2023-08-08T08:36:51;7.03;;;5.68;;
45944;SDS011;31655;48.972;10.686;2023-08-08T08:39:17;7.75;;;4.78;;
45944;SDS011;31655;48.972;10.686;2023-08-08T08:41:44;3.45;;;2.15;;
45944;SDS011;31655;48.972;10.686;2023-08-08T08:44:16;4.47;;;2.30;;
45944;SDS011;31655;48.972;10.686;2023-08-08T08:46:41;3.03;;;1.67;;
45944;SDS011;31655;48.972;10.686;2023-08-08T08:49:07;3.40;;;2.35;;
45944;SDS011;31655;48.972;10.686;2023-08-08T08:51:35;5.13;;;2.13;;
45944;SDS011;31655;48.972;10.686;2023-08-08T08:54:01;6.90;;;3.35;;
45944;SDS011;31655;48.972;10.686;2023-08-08T08:56:27;4.20;;;3.03;;
45944;SDS011;31655;48.972;10.686;2023-08-08T08:58:54;5.22;;;2.53;;
45944;SDS011;31655;48.972;10.686;2023-08-08T09:01:20;3.60;;;2.58;;
45944;SDS011;31655;48.972;10.686;2023-08-08T09:03:48;3.38;;;2.22;;
45944;SDS011;31655;48.972;10.686;2023-08-08T09:06:14;2.80;;;2.40;;
45944;SDS011;31655;48.972;10.686;2023-08-08T09:08:41;4.93;;;3.10;;
45944;SDS011;31655;48.972;10.686;2023-08-08T09:11:07;5.00;;;2.70;;
45944;SDS011;31655;48.972;10.686;2023-08-08T09:13:37;3.15;;;2.05;;
45944;SDS011;31655;48.972;10.686;2023-08-08T09:16:04;6.00;;;2.22;;
45944;SDS011;31655;48.972;10.686;2023-08-08T09:18:32;4.60;;;2.40;;
45944;SDS011;31655;48.972;10.686;2023-08-08T09:20:58;4.22;;;3.05;;
45944;SDS011;31655;48.972;10.686;2023-08-08T09:23:24;8.02;;;2.80;;
45944;SDS011;31655;48.972;10.686;2023-08-08T09:25:50;3.20;;;2.58;;
45944;SDS011;31655;48.972;10.686;2023-08-08T09:28:17;4.43;;;1.90;;
45944;SDS011;31655;48.972;10.686;2023-08-08T09:30:43;4.47;;;2.50;;
45944;SDS011;31655;48.972;10.686;2023-08-08T09:33:09;5.57;;;3.25;;
45944;SDS011;31655;48.972;10.686;2023-08-08T09:35:37;4.22;;;2.75;;
45944;SDS011;31655;48.972;10.686;2023-08-08T09:38:04;7.50;;;2.35;;
45944;SDS011;31655;48.972;10.686;2023-08-08T09:40:30;3.65;;;2.47;;
45944;SDS011;31655;48.972;10.686;2023-08-08T09:42:56;6.47;;;3.00;;
45944;SDS011;31655;48.972;10.686;2023-08-08T09:45:23;5.55;;;2.95;;
45944;SDS011;31655;48.972;10.686;2023-08-08T09:47:49;3.35;;;1.90;;
45944;SDS011;31655;48.972;10.686;2023-08-08T09:50:17;5.20;;;3.38;;
45944;SDS011;31655;48.972;10.686;2023-08-08T09:52:43;5.20;;;3.22;;
45944;SDS011;31655;48.972;10.686;2023-08-08T09:55:10;7.70;;;3.33;;
45944;SDS011;31655;48.972;10.686;2023-08-08T09:57:38;4.53;;;2.50;;
45944;SDS011;31655;48.972;10.686;2023-08-08T10:00:04;9.18;;;3.30;;
45944;SDS011;31655;48.972;10.686;2023-08-08T10:02:35;3.47;;;2.42;;
45944;SDS011;31655;48.972;10.686;2023-08-08T10:05:02;2.90;;;2.20;;
45944;SDS011;31655;48.972;10.686;2023-08-08T10:07:28;5.80;;;2.47;;
45944;SDS011;31655;48.972;10.686;2023-08-08T10:09:53;3.22;;;2.17;;
45944;SDS011;31655;48.972;10.686;2023-08-08T10:12:20;3.83;;;2.05;;
45944;SDS011;31655;48.972;10.686;2023-08-08T10:14:46;4.10;;;1.95;;
45944;SDS011;31655;48.972;10.686;2023-08-08T10:17:15;3.60;;;2.60;;
45944;SDS011;31655;48.972;10.686;2023-08-08T10:19:49;4.45;;;2.28;;
45944;SDS011;31655;48.972;10.686;2023-08-08T10:22:22;2.90;;;2.20;;
45944;SDS011;31655;48.972;10.686;2023-08-08T10:24:51;3.78;;;2.00;;
45944;SDS011;31655;48.972;10.686;2023-08-08T10:27:28;3.53;;;2.47;;
45944;SDS011;31655;48.972;10.686;2023-08-08T10:30:00;4.53;;;2.80;;
45944;SDS011;31655;48.972;10.686;2023-08-08T10:32:27;3.13;;;2.03;;
45944;SDS011;31655;48.972;10.686;2023-08-08T10:34:55;3.60;;;2.40;;
45944;SDS011;31655;48.972;10.686;2023-08-08T10:37:21;4.93;;;2.40;;
45944;SDS011;31655;48.972;10.686;2023-08-08T10:39:54;2.00;;;1.75;;
45944;SDS011;31655;48.972;10.686;2023-08-08T10:44:51;2.90;;;2.17;;
45944;SDS011;31655;48.972;10.686;2023-08-08T10:47:22;6.90;;;2.78;;
45944;SDS011;31655;48.972;10.686;2023-08-08T10:50:03;9.25;;;2.30;;
45944;SDS011;31655;48.972;10.686;2023-08-08T10:52:29;4.22;;;2.20;;
45944;SDS011;31655;48.972;10.686;2023-08-08T10:54:54;3.97;;;2.65;;
45944;SDS011;31655;48.972;10.686;2023-08-08T10:57:24;2.42;;;2.00;;
45944;SDS011;31655;48.972;10.686;2023-08-08T10:59:50;4.68;;;1.90;;
45944;SDS011;31655;48.972;10.686;2023-08-08T11:02:16;2.75;;;1.92;;
45944;SDS011;31655;48.972;10.686;2023-08-08T11:04:43;3.92;;;1.88;;
45944;SDS011;31655;48.972;10.686;2023-08-08T11:07:09;4.32;;;1.73;;
45944;SDS011;31655;48.972;10.686;2023-08-08T11:09:35;4.43;;;2.17;;
45944;SDS011;31655;48.972;10.686;2023-08-08T11:12:01;3.58;;;2.60;;
45944;SDS011;31655;48.972;10.686;2023-08-08T11:14:27;2.95;;;2.15;;
45944;SDS011;31655;48.972;10.686;2023-08-08T11:16:53;5.22;;;2.80;;
45944;SDS011;31655;48.972;10.686;2023-08-08T11:19:19;3.75;;;2.60;;
45944;SDS011;31655;48.972;10.686;2023-08-08T11:21:45;4.97;;;2.53;;
45944;SDS011;31655;48.972;10.686;2023-08-08T11:24:12;5.50;;;3.28;;
45944;SDS011;31655;48.972;10.686;2023-08-08T11:26:39;3.08;;;2.13;;
45944;SDS011;31655;48.972;10.686;2023-08-08T11:29:06;3.83;;;2.13;;
45944;SDS011;31655;48.972;10.686;2023-08-08T11:31:33;4.50;;;3.13;;
45944;SDS011;31655;48.972;10.686;2023-08-08T11:33:59;4.35;;;2.63;;
45944;SDS011;31655;48.972;10.686;2023-08-08T11:36:26;3.33;;;2.33;;
45944;SDS011;31655;48.972;10.686;2023-08-08T11:38:55;3.00;;;2.17;;
45944;SDS011;31655;48.972;10.686;2023-08-08T11:41:22;3.70;;;2.30;;
45944;SDS011;31655;48.972;10.686;2023-08-08T11:43:50;4.00;;;1.80;;
45944;SDS011;31655;48.972;10.686;2023-08-08T11:46:16;2.58;;;1.88;;
45944;SDS011;31655;48.972;10.686;2023-08-08T11:48:42;2.65;;;1.83;;
45944;SDS011;31655;48.972;10.686;2023-08-08T11:51:09;3.35;;;2.63;;
45944;SDS011;31655;48.972;10.686;2023-08-08T11:53:35;3.63;;;1.90;;
45944;SDS011;31655;48.972;10.686;2023-08-08T11:56:01;7.35;;;1.83;;
45944;SDS011;31655;48.972;10.686;2023-08-08T11:58:31;3.05;;;1.75;;
45944;SDS011;31655;48.972;10.686;2023-08-08T12:00:57;4.10;;;2.08;;
45944;SDS011;31655;48.972;10.686;2023-08-08T12:03:27;2.80;;;1.95;;
45944;SDS011;31655;48.972;10.686;2023-08-08T12:05:52;6.32;;;2.78;;
45944;SDS011;31655;48.972;10.686;2023-08-08T12:08:18;2.95;;;1.98;;
45944;SDS011;31655;48.972;10.686;2023-08-08T12:10:49;3.63;;;1.60;;
45944;SDS011;31655;48.972;10.686;2023-08-08T12:13:19;5.00;;;2.22;;
45944;SDS011;31655;48.972;10.686;2023-08-08T12:15:46;3.58;;;2.10;;
45944;SDS011;31655;48.972;10.686;2023-08-08T12:18:15;4.88;;;2.70;;
45944;SDS011;31655;48.972;10.686;2023-08-08T12:20:42;3.05;;;2.10;;
45944;SDS011;31655;48.972;10.686;2023-08-08T12:23:08;2.33;;;2.00;;
45944;SDS011;31655;48.972;10.686;2023-08-08T12:25:34;2.80;;;2.15;;
45944;SDS011;31655;48.972;10.686;2023-08-08T12:28:01;4.18;;;1.90;;
45944;SDS011;31655;48.972;10.686;2023-08-08T12:30:27;3.92;;;2.20;;
45944;SDS011;31655;48.972;10.686;2023-08-08T12:32:53;4.38;;;2.42;;
45944;SDS011;31655;48.972;10.686;2023-08-08T12:35:19;1.92;;;1.58;;
45944;SDS011;31655;48.972;10.686;2023-08-08T12:37:46;2.72;;;2.30;;
45944;SDS011;31655;48.972;10.686;2023-08-08T12:40:12;4.28;;;2.30;;
45944;SDS011;31655;48.972;10.686;2023-08-08T12:42:38;6.65;;;2.33;;
45944;SDS011;31655;48.972;10.686;2023-08-08T12:45:05;3.88;;;2.33;;
45944;SDS011;31655;48.972;10.686;2023-08-08T12:47:31;3.55;;;2.22;;
45944;SDS011;31655;48.972;10.686;2023-08-08T12:50:01;2.85;;;1.88;;
45944;SDS011;31655;48.972;10.686;2023-08-08T12:52:27;2.35;;;2.10;;
45944;SDS011;31655;48.972;10.686;2023-08-08T12:54:54;6.95;;;2.70;;
45944;SDS011;31655;48.972;10.686;2023-08-08T12:57:20;3.53;;;2.17;;
45944;SDS011;31655;48.972;10.686;2023-08-08T12:59:46;5.78;;;2.53;;
45944;SDS011;31655;48.972;10.686;2023-08-08T13:02:12;3.85;;;2.28;;
45944;SDS011;31655;48.972;10.686;2023-08-08T13:04:39;2.20;;;2.00;;
45944;SDS011;31655;48.972;10.686;2023-08-08T13:07:04;2.75;;;1.90;;
45944;SDS011;31655;48.972;10.686;2023-08-08T13:09:30;5.15;;;2.42;;
45944;SDS011;31655;48.972;10.686;2023-08-08T13:11:56;2.60;;;2.28;;
45944;SDS011;31655;48.972;10.686;2023-08-08T13:14:22;4.70;;;2.78;;
45944;SDS011;31655;48.972;10.686;2023-08-08T13:16:48;4.63;;;2.03;;
45944;SDS011;31655;48.972;10.686;2023-08-08T13:19:14;4.97;;;2.15;;
45944;SDS011;31655;48.972;10.686;2023-08-08T13:21:44;10.13;;;2.05;;
45944;SDS011;31655;48.972;10.686;2023-08-08T13:24:10;4.63;;;2.42;;
45944;SDS011;31655;48.972;10.686;2023-08-08T13:26:38;2.55;;;1.73;;
45944;SDS011;31655;48.972;10.686;2023-08-08T13:29:04;4.20;;;2.00;;
45944;SDS011;31655;48.972;10.686;2023-08-08T13:31:30;4.15;;;2.00;;
45944;SDS011;31655;48.972;10.686;2023-08-08T13:33:55;3.30;;;1.88;;
45944;SDS011;31655;48.972;10.686;2023-08-08T13:36:21;2.47;;;1.90;;
45944;SDS011;31655;48.972;10.686;2023-08-08T13:38:49;3.45;;;1.92;;
45944;SDS011;31655;48.972;10.686;2023-08-08T13:41:14;5.05;;;3.00;;
45944;SDS011;31655;48.972;10.686;2023-08-08T13:43:40;4.43;;;2.33;;
45944;SDS011;31655;48.972;10.686;2023-08-08T13:46:06;2.88;;;1.50;;
45944;SDS011;31655;48.972;10.686;2023-08-08T13:48:34;3.33;;;1.55;;
45944;SDS011;31655;48.972;10.686;2023-08-08T13:51:00;1.42;;;1.27;;
45944;SDS011;31655;48.972;10.686;2023-08-08T13:53:26;7.28;;;2.20;;
45944;SDS011;31655;48.972;10.686;2023-08-08T13:55:52;3.13;;;1.52;;
45944;SDS011;31655;48.972;10.686;2023-08-08T13:58:18;3.10;;;2.25;;
45944;SDS011;31655;48.972;10.686;2023-08-08T14:00:47;2.90;;;1.23;;
45944;SDS011;31655;48.972;10.686;2023-08-08T14:03:13;4.50;;;1.80;;
45944;SDS011;31655;48.972;10.686;2023-08-08T14:05:38;2.65;;;1.80;;
45944;SDS011;31655;48.972;10.686;2023-08-08T14:08:04;4.03;;;2.05;;
45944;SDS011;31655;48.972;10.686;2023-08-08T14:10:31;2.75;;;1.73;;
45944;SDS011;31655;48.972;10.686;2023-08-08T14:12:57;3.97;;;1.77;;
45944;SDS011;31655;48.972;10.686;2023-08-08T14:15:23;2.13;;;1.67;;
45944;SDS011;31655;48.972;10.686;2023-08-08T14:17:49;2.88;;;1.60;;
45944;SDS011;31655;48.972;10.686;2023-08-08T14:20:15;4.35;;;1.55;;
45944;SDS011;31655;48.972;10.686;2023-08-08T14:22:43;3.63;;;1.77;;
45944;SDS011;31655;48.972;10.686;2023-08-08T14:25:12;3.53;;;2.60;;
45944;SDS011;31655;48.972;10.686;2023-08-08T14:27:39;3.53;;;2.20;;
45944;SDS011;31655;48.972;10.686;2023-08-08T14:30:05;4.03;;;2.38;;
45944;SDS011;31655;48.972;10.686;2023-08-08T14:32:31;2.53;;;1.80;;
45944;SDS011;31655;48.972;10.686;2023-08-08T14:34:57;3.90;;;2.40;;